Time;durP1;ratioP1;P1;durP2;ratioP2;P2;SDS_P1;SDS_P2;PMS_P1;PMS_P2;Temp;Humidity;BMP_temperature;BMP_pressure;BME280_temperature;BME280_humidity;BME280_pressure;Samples;Min_cycle;Max_cycle;Signal;HPM_P1;HPM_P2
2023/06/22 04:01:54;;;;;;;0.70;0.10;;;23.00;79.60;;;;;;5388337;23;20502;-75
2023/06/22 04:04:23;;;;;;;0.70;0.10;;;22.80;84.80;;;;;;4921029;29;20496;-75
2023/06/22 04:06:51;;;;;;;0.70;0.20;;;;;;;;;;4918251;29;20501;-76
2023/06/22 04:09:19;;;;;;;0.70;0.10;;;22.90;89.40;;;;;;4918006;29;20442;-76
2023/06/22 04:11:47;;;;;;;0.70;0.10;;;22.80;90.30;;;;;;4917135;29;20581;-75
2023/06/22 04:14:15;;;;;;;0.80;0.67;;;;;;;;;;4911054;29;20454;-75
2023/06/22 04:16:43;;;;;;;1.10;0.83;;;22.90;91.00;;;;;;4959902;23;20553;-73
2023/06/22 04:19:16;;;;;;;0.70;0.10;;;22.90;96.60;;;;;;4955546;29;20800;-72
2023/06/22 04:21:45;;;;;;;0.70;0.10;;;22.90;92.60;;;;;;4955879;29;21140;-72
2023/06/22 04:24:13;;;;;;;0.90;0.70;;;22.80;98.60;;;;;;4955684;29;20531;-72
2023/06/22 04:26:45;;;;;;;0.80;0.50;;;22.90;94.10;;;;;;4940048;29;20547;-73
2023/06/22 04:29:13;;;;;;;0.70;0.10;;;22.80;94.40;;;;;;4936754;29;20846;-72
2023/06/22 04:31:41;;;;;;;0.70;0.10;;;22.80;96.10;;;;;;4932025;29;20501;-73
2023/06/22 04:34:09;;;;;;;0.70;0.20;;;22.90;97.10;;;;;;4932009;29;20489;-73
2023/06/22 04:36:40;;;;;;;0.70;0.20;;;22.90;97.30;;;;;;4931090;29;20484;-74
2023/06/22 04:39:09;;;;;;;0.70;0.10;;;22.80;97.20;;;;;;4936421;29;20446;-73
2023/06/22 04:41:42;;;;;;;0.70;0.20;;;22.90;99.90;;;;;;4930836;29;20461;-74
2023/06/22 04:44:11;;;;;;;0.70;0.27;;;22.90;98.40;;;;;;4935847;29;20463;-73
2023/06/22 04:46:39;;;;;;;2.27;1.63;;;22.90;99.10;;;;;;4934242;29;20518;-74
2023/06/22 04:49:09;;;;;;;0.70;0.30;;;22.80;99.90;;;;;;4940410;29;20454;-73
2023/06/22 04:51:41;;;;;;;0.70;0.20;;;22.80;99.90;;;;;;4955270;29;20456;-73
2023/06/22 04:54:10;;;;;;;0.70;0.10;;;22.80;99.90;;;;;;4951808;29;20521;-73
2023/06/22 04:56:40;;;;;;;0.70;0.20;;;22.80;99.90;;;;;;4936018;29;20469;-73
2023/06/22 04:59:12;;;;;;;0.70;0.20;;;22.80;99.90;;;;;;4938027;29;20516;-73
2023/06/22 05:01:40;;;;;;;1.90;1.80;;;22.90;99.90;;;;;;4934103;29;20954;-74
2023/06/22 05:04:09;;;;;;;0.70;0.40;;;22.90;99.90;;;;;;4939333;29;20478;-73
2023/06/22 05:06:37;;;;;;;0.70;0.10;;;22.90;99.90;;;;;;4930130;29;21008;-74
2023/06/22 05:09:09;;;;;;;0.80;0.53;;;22.80;99.90;;;;;;4935604;29;20454;-74
2023/06/22 05:11:37;;;;;;;0.60;0.20;;;22.80;99.90;;;;;;4935145;29;20488;-73
2023/06/22 05:14:05;;;;;;;3.10;2.90;;;22.90;99.90;;;;;;4936157;29;20498;-73
2023/06/22 05:16:34;;;;;;;0.63;0.17;;;23.00;99.90;;;;;;4933904;29;20481;-69
2023/06/22 05:19:03;;;;;;;0.70;0.10;;;23.00;99.90;;;;;;4936953;29;20455;-70
2023/06/22 05:21:32;;;;;;;0.70;0.10;;;22.90;99.90;;;;;;4939471;29;20478;-69
2023/06/22 05:24:02;;;;;;;0.60;0.10;;;23.00;99.90;;;;;;4935075;29;20953;-69
2023/06/22 05:26:32;;;;;;;0.70;0.10;;;23.10;99.90;;;;;;4935211;29;20861;-69
2023/06/22 05:29:02;;;;;;;0.70;0.20;;;23.10;99.90;;;;;;4931943;29;20551;-70
2023/06/22 05:31:31;;;;;;;0.70;0.10;;;23.10;99.90;;;;;;4934642;29;20457;-70
2023/06/22 05:33:59;;;;;;;0.70;0.20;;;23.20;99.90;;;;;;4933632;29;20564;-70
2023/06/22 05:36:27;;;;;;;1.83;0.40;;;23.20;99.90;;;;;;4934097;29;20510;-69
2023/06/22 05:38:58;;;;;;;0.70;0.20;;;23.20;99.90;;;;;;4934537;29;20452;-68
2023/06/22 05:41:25;;;;;;;0.70;0.20;;;23.20;99.90;;;;;;4919834;29;20458;-65
2023/06/22 05:43:55;;;;;;;0.70;0.20;;;23.20;99.90;;;;;;4928561;29;20875;-70
2023/06/22 05:46:24;;;;;;;0.70;0.20;;;23.20;99.90;;;;;;4932960;29;20552;-70
2023/06/22 05:48:52;;;;;;;0.70;0.10;;;23.20;99.90;;;;;;4934170;29;20546;-69
2023/06/22 05:51:20;;;;;;;0.70;0.27;;;23.20;99.90;;;;;;4933685;29;20557;-69
2023/06/22 05:53:49;;;;;;;0.70;0.20;;;23.20;99.90;;;;;;4934139;29;20625;-70
2023/06/22 05:56:17;;;;;;;0.70;0.20;;;23.30;99.90;;;;;;4934724;29;20555;-70
2023/06/22 05:58:47;;;;;;;0.70;0.20;;;23.40;99.90;;;;;;4934322;29;20541;-71
2023/06/22 06:01:16;;;;;;;0.70;0.10;;;23.50;99.90;;;;;;4939145;29;20469;-71
2023/06/22 06:03:44;;;;;;;0.70;0.23;;;23.50;99.90;;;;;;4933682;29;20477;-69
2023/06/22 06:06:12;;;;;;;0.70;0.17;;;23.50;99.90;;;;;;4934427;29;20469;-71
2023/06/22 06:08:40;;;;;;;0.80;0.50;;;23.60;99.90;;;;;;4934364;29;20455;-71
2023/06/22 06:11:08;;;;;;;1.67;0.97;;;23.60;99.90;;;;;;4934437;29;20569;-71
2023/06/22 06:13:36;;;;;;;3.33;1.27;;;23.60;99.90;;;;;;4935772;29;20525;-70
2023/06/22 06:16:04;;;;;;;0.70;0.10;;;23.60;99.90;;;;;;4934738;29;20485;-70
2023/06/22 06:18:33;;;;;;;1.63;0.50;;;23.70;99.90;;;;;;4934609;29;20457;-70
2023/06/22 06:21:01;;;;;;;0.70;0.10;;;23.70;99.90;;;;;;4934620;29;20490;-70
2023/06/22 06:23:29;;;;;;;0.70;0.30;;;23.70;99.90;;;;;;4934064;29;20537;-69
2023/06/22 06:25:57;;;;;;;0.70;0.30;;;23.70;99.90;;;;;;4950444;29;20476;-69
2023/06/22 06:28:26;;;;;;;1.30;1.03;;;23.70;99.90;;;;;;4950748;29;20454;-69
2023/06/22 06:30:54;;;;;;;1.47;1.07;;;;;;;;;;4929172;29;20465;-70
2023/06/22 06:33:22;;;;;;;0.70;0.20;;;23.70;99.90;;;;;;4932732;29;20483;-69
2023/06/22 06:35:55;;;;;;;0.70;0.20;;;23.80;99.90;;;;;;4933939;29;20479;-71
2023/06/22 06:38:23;;;;;;;0.70;0.23;;;23.90;99.90;;;;;;4928498;29;20829;-69
2023/06/22 06:40:51;;;;;;;0.70;0.20;;;23.90;99.90;;;;;;4934426;29;20457;-68
2023/06/22 06:43:19;;;;;;;0.80;0.33;;;24.00;99.90;;;;;;4934372;29;20526;-71
2023/06/22 06:45:47;;;;;;;0.70;0.30;;;24.00;99.90;;;;;;4931298;29;20511;-70
2023/06/22 06:48:19;;;;;;;1.87;0.60;;;24.00;99.90;;;;;;4915933;29;20479;-70
2023/06/22 06:50:47;;;;;;;0.70;0.20;;;24.10;99.90;;;;;;4915797;29;20875;-70
2023/06/22 06:53:16;;;;;;;0.70;0.20;;;24.10;99.90;;;;;;4918178;29;20737;-71
2023/06/22 06:55:45;;;;;;;0.70;0.20;;;24.20;99.90;;;;;;4933705;29;20667;-68
2023/06/22 06:58:13;;;;;;;0.70;0.10;;;24.30;99.90;;;;;;4934482;29;20450;-71
2023/06/22 07:00:41;;;;;;;0.70;0.10;;;24.40;99.90;;;;;;4934389;29;20552;-70
2023/06/22 07:03:09;;;;;;;0.70;0.10;;;24.40;99.90;;;;;;4936974;29;20948;-71
2023/06/22 07:05:37;;;;;;;0.80;0.60;;;24.50;99.90;;;;;;4937909;29;20470;-71
2023/06/22 07:08:05;;;;;;;0.70;0.40;;;24.50;99.90;;;;;;4938574;29;20822;-72
2023/06/22 07:10:34;;;;;;;2.40;1.90;;;24.40;99.90;;;;;;4938058;29;20814;-70
2023/06/22 07:13:02;;;;;;;0.70;0.20;;;24.40;99.90;;;;;;4936748;29;20447;-67
2023/06/22 07:15:30;;;;;;;0.70;0.20;;;24.50;99.90;;;;;;4937574;29;20478;-69
2023/06/22 07:17:58;;;;;;;0.70;0.20;;;24.60;99.90;;;;;;4939338;29;20468;-69
2023/06/22 07:20:26;;;;;;;5.07;4.23;;;24.70;99.90;;;;;;4937256;29;20501;-68
2023/06/22 07:22:54;;;;;;;1.50;0.77;;;24.70;99.90;;;;;;4943477;29;20457;-69
2023/06/22 07:25:22;;;;;;;0.70;0.10;;;24.70;99.90;;;;;;4946669;29;20520;-69
2023/06/22 07:28:01;;;;;;;1.53;1.23;;;24.70;99.90;;;;;;4951686;29;20477;-69
2023/06/22 07:30:29;;;;;;;0.70;0.30;;;24.70;99.90;;;;;;4936218;29;20529;-70
2023/06/22 07:33:03;;;;;;;1.87;0.50;;;24.70;99.90;;;;;;4936942;29;20501;-67
2023/06/22 07:35:31;;;;;;;0.70;0.20;;;24.70;99.90;;;;;;4937075;29;21013;-68
2023/06/22 07:37:59;;;;;;;0.70;0.30;;;24.70;99.90;;;;;;4937480;29;20450;-72
2023/06/22 07:40:31;;;;;;;0.70;0.10;;;24.70;99.90;;;;;;4931976;29;20488;-67
2023/06/22 07:43:00;;;;;;;2.10;0.87;;;24.70;99.90;;;;;;4934012;29;20478;-69
2023/06/22 07:45:28;;;;;;;0.90;0.63;;;24.80;99.90;;;;;;4936050;29;21012;-69
2023/06/22 07:47:56;;;;;;;0.80;0.63;;;24.90;99.90;;;;;;4917851;29;20515;-69
2023/06/22 07:50:24;;;;;;;0.70;0.10;;;24.90;99.90;;;;;;4917762;29;20495;-68
2023/06/22 07:52:53;;;;;;;1.00;0.63;;;25.00;99.90;;;;;;4917584;29;20495;-68
2023/06/22 07:55:21;;;;;;;0.70;0.17;;;25.20;97.20;;;;;;4930621;29;20550;-70
2023/06/22 07:57:51;;;;;;;1.03;0.93;;;25.20;99.90;;;;;;4940838;29;20454;-70
2023/06/22 08:00:21;;;;;;;0.70;0.30;;;25.20;99.90;;;;;;4945714;29;20445;-69
2023/06/22 08:02:49;;;;;;;0.70;0.20;;;25.20;99.90;;;;;;4932700;29;20455;-69
2023/06/22 08:05:17;;;;;;;0.70;0.20;;;25.40;97.00;;;;;;4942935;29;20452;-67
2023/06/22 08:08:01;;;;;;;0.70;0.10;;;25.50;94.80;;;;;;4931195;29;20788;-69
2023/06/22 08:10:29;;;;;;;0.70;0.10;;;25.50;99.90;;;;;;4941830;29;20792;-68
2023/06/22 08:12:57;;;;;;;0.70;0.20;;;25.50;99.90;;;;;;4941216;29;20545;-69
2023/06/22 08:15:28;;;;;;;0.80;0.40;;;25.60;94.30;;;;;;4942525;29;20919;-69
2023/06/22 08:17:57;;;;;;;0.93;0.83;;;25.60;99.70;;;;;;4936607;29;20529;-67
2023/06/22 08:20:25;;;;;;;0.70;0.13;;;25.70;94.70;;;;;;4944370;29;20557;-68
2023/06/22 08:22:55;;;;;;;0.80;0.43;;;25.70;99.90;;;;;;4936761;29;20562;-67
2023/06/22 08:25:23;;;;;;;0.70;0.20;;;25.80;91.30;;;;;;4936587;29;20487;-68
2023/06/22 08:27:51;;;;;;;1.20;0.87;;;25.90;95.80;;;;;;4936645;29;20503;-68
2023/06/22 08:30:19;;;;;;;0.70;0.17;;;25.80;94.20;;;;;;4935571;29;21030;-67
2023/06/22 08:32:48;;;;;;;0.80;0.63;;;25.90;94.80;;;;;;4935683;29;21058;-67
2023/06/22 08:35:16;;;;;;;0.70;0.20;;;26.00;90.50;;;;;;4934684;29;20565;-68
2023/06/22 08:37:50;;;;;;;1.00;0.90;;;26.00;95.60;;;;;;4934804;29;20495;-67
2023/06/22 08:40:19;;;;;;;0.70;0.17;;;26.20;87.80;;;;;;4939844;29;20452;-67
2023/06/22 08:42:47;;;;;;;0.80;0.30;;;26.20;94.40;;;;;;4935625;29;20691;-68
2023/06/22 08:45:16;;;;;;;0.70;0.23;;;;;;;;;;4925627;29;21058;-66
2023/06/22 08:47:43;;;;;;;0.70;0.10;;;26.30;78.60;;;;;;4938685;29;20812;-68
2023/06/22 08:50:13;;;;;;;0.90;0.80;;;26.50;82.00;;;;;;4935993;29;20450;-66
2023/06/22 08:52:42;;;;;;;0.70;0.23;;;26.50;91.30;;;;;;4935968;29;20989;-66
2023/06/22 08:55:11;;;;;;;1.50;1.40;;;26.60;75.90;;;;;;4937256;29;20516;-67
2023/06/22 08:57:39;;;;;;;1.37;0.57;;;26.60;86.90;;;;;;4935263;29;20464;-67
2023/06/22 09:00:17;;;;;;;0.70;0.17;;;26.70;74.40;;;;;;4935894;29;20443;-66
2023/06/22 09:02:45;;;;;;;0.70;0.30;;;26.70;85.20;;;;;;4935679;29;20463;-67
2023/06/22 09:05:14;;;;;;;0.90;0.63;;;26.90;69.30;;;;;;4931997;29;20467;-67
2023/06/22 09:07:43;;;;;;;0.70;0.40;;;26.80;62.00;;;;;;4933600;29;20455;-66
2023/06/22 09:10:11;;;;;;;9.20;2.60;;;26.90;62.80;;;;;;4935913;29;20448;-67
2023/06/22 09:12:40;;;;;;;0.70;0.10;;;26.90;61.70;;;;;;4941126;29;20455;-67
2023/06/22 09:15:10;;;;;;;0.70;0.30;;;27.10;60.50;;;;;;4934002;29;20487;-68
2023/06/22 09:17:55;;;;;;;1.17;0.83;;;27.10;71.70;;;;;;4940248;29;20461;-66
2023/06/22 09:20:25;;;;;;;0.70;0.20;;;27.30;58.10;;;;;;4935059;29;20443;-67
2023/06/22 09:22:53;;;;;;;0.80;0.40;;;27.30;69.70;;;;;;4934025;29;20451;-67
2023/06/22 09:25:21;;;;;;;0.70;0.20;;;27.40;55.70;;;;;;4933669;29;20467;-67
2023/06/22 09:27:49;;;;;;;1.63;0.70;;;27.40;66.30;;;;;;4936450;29;20452;-67
2023/06/22 09:30:17;;;;;;;0.70;0.10;;;27.40;58.70;;;;;;4936423;29;20448;-67
2023/06/22 09:32:45;;;;;;;0.70;0.20;;;27.50;60.00;;;;;;4936583;29;20448;-67
2023/06/22 09:35:13;;;;;;;0.70;0.20;;;27.70;50.60;;;;;;4933597;29;20487;-67
2023/06/22 09:37:42;;;;;;;0.70;0.10;;;27.70;61.90;;;;;;4934609;29;20443;-66
2023/06/22 09:40:12;;;;;;;0.70;0.10;;;27.80;47.90;;;;;;4935131;29;20475;-67
2023/06/22 09:42:42;;;;;;;0.70;0.20;;;28.00;42.40;;;;;;4934701;29;20448;-68
2023/06/22 09:45:10;;;;;;;1.73;1.63;;;28.00;42.00;;;;;;4935665;29;20495;-68
2023/06/22 09:47:38;;;;;;;2.83;1.93;;;28.00;37.90;;;;;;4934540;29;20450;-67
2023/06/22 09:50:07;;;;;;;0.70;0.20;;;27.90;35.30;;;;;;4934393;29;20547;-67
2023/06/22 09:52:35;;;;;;;0.70;0.10;;;27.90;45.30;;;;;;4934628;29;20993;-67
2023/06/22 09:55:08;;;;;;;0.70;0.10;;;28.00;37.10;;;;;;4935153;29;20574;-68
2023/06/22 09:57:36;;;;;;;0.80;0.30;;;28.00;48.00;;;;;;4935086;29;20538;-66
2023/06/22 10:00:08;;;;;;;0.97;0.67;;;28.20;37.80;;;;;;4935363;29;20458;-66
2023/06/22 10:02:36;;;;;;;2.50;0.73;;;28.30;46.30;;;;;;4934165;29;20539;-68
2023/06/22 10:05:05;;;;;;;0.70;0.20;;;28.60;14.60;;;;;;4926309;29;20481;-66
2023/06/22 10:07:42;;;;;;;0.70;0.20;;;;;;;;;;4938301;29;20921;-67
2023/06/22 10:10:13;;;;;;;0.70;0.20;;;28.90;9.20;;;;;;4936081;29;20534;-66
2023/06/22 10:12:47;;;;;;;1.17;0.60;;;29.00;5.60;;;;;;4934382;29;20938;-67
2023/06/22 10:15:16;;;;;;;0.70;0.20;;;29.10;2.60;;;;;;4934037;29;20495;-67
2023/06/22 10:17:44;;;;;;;1.30;0.97;;;29.00;10.70;;;;;;4934315;29;20591;-67
2023/06/22 10:20:12;;;;;;;0.70;0.20;;;29.00;1.00;;;;;;4933702;29;20452;-66
2023/06/22 10:22:41;;;;;;;0.70;0.20;;;29.10;1.00;;;;;;4933816;29;20448;-68
2023/06/22 10:25:10;;;;;;;1.20;1.10;;;29.20;1.00;;;;;;4933578;29;20471;-67
2023/06/22 10:27:40;;;;;;;0.70;0.20;;;29.30;9.70;;;;;;4934368;29;20503;-67
2023/06/22 10:30:09;;;;;;;5.23;4.00;;;29.30;11.50;;;;;;4933540;29;20522;-67
2023/06/22 10:32:39;;;;;;;0.80;0.30;;;29.30;2.70;;;;;;4935415;29;20480;-67
2023/06/22 10:35:07;;;;;;;1.83;0.90;;;29.40;1.00;;;;;;4946391;23;20528;-70
2023/06/22 10:37:37;;;;;;;0.70;0.20;;;29.40;1.00;;;;;;4930614;29;20440;-70
2023/06/22 10:40:07;;;;;;;0.80;0.20;;;29.40;5.70;;;;;;4933128;29;20947;-70
2023/06/22 10:42:35;;;;;;;0.70;0.20;;;29.40;4.90;;;;;;4899805;29;20480;-68
2023/06/22 10:45:05;;;;;;;1.47;1.27;;;29.50;1.00;;;;;;4900017;29;20469;-69
2023/06/22 10:47:33;;;;;;;0.70;0.10;;;29.40;1.00;;;;;;4900505;29;20471;-69
2023/06/22 10:50:02;;;;;;;0.70;0.27;;;29.50;1.00;;;;;;4907156;29;20449;-70
2023/06/22 10:52:30;;;;;;;0.70;0.10;;;29.50;6.10;;;;;;4930079;29;20952;-70
2023/06/22 10:54:58;;;;;;;0.70;0.20;;;29.70;1.00;;;;;;4938265;29;20492;-69
2023/06/22 10:57:26;;;;;;;0.80;0.57;;;29.70;1.00;;;;;;4921501;29;20497;-70
2023/06/22 10:59:54;;;;;;;1.03;0.73;;;29.80;1.00;;;;;;4919228;29;20541;-70
2023/06/22 11:02:24;;;;;;;0.90;0.47;;;29.90;1.00;;;;;;4918766;29;20462;-68
2023/06/22 11:04:52;;;;;;;1.83;1.70;;;30.00;1.00;;;;;;4918761;29;20553;-70
2023/06/22 11:07:20;;;;;;;0.80;0.20;;;30.00;1.00;;;;;;4919368;29;20469;-69
2023/06/22 11:09:48;;;;;;;1.40;1.20;;;30.00;1.00;;;;;;4918511;29;20473;-69
2023/06/22 11:12:16;;;;;;;1.73;0.50;;;30.10;1.00;;;;;;4918394;29;20993;-73
2023/06/22 11:14:47;;;;;;;0.80;0.70;;;30.10;1.00;;;;;;4918501;29;20545;-70
2023/06/22 11:17:15;;;;;;;0.70;0.20;;;30.20;1.00;;;;;;4918728;29;20486;-69
2023/06/22 11:19:45;;;;;;;1.30;0.70;;;30.20;1.00;;;;;;4918936;29;20477;-71
2023/06/22 11:22:13;;;;;;;0.70;0.10;;;30.20;1.00;;;;;;4918400;29;20455;-69
2023/06/22 11:24:41;;;;;;;0.70;0.20;;;30.40;1.00;;;;;;4918833;29;21075;-70
2023/06/22 11:27:09;;;;;;;1.27;0.87;;;30.40;1.00;;;;;;4918463;29;20466;-70
2023/06/22 11:29:39;;;;;;;0.70;0.20;;;30.40;1.00;;;;;;4918953;29;20457;-69
2023/06/22 11:32:08;;;;;;;0.70;0.13;;;30.30;1.00;;;;;;4918940;29;20534;-69
2023/06/22 11:34:38;;;;;;;4.13;3.80;;;30.40;1.00;;;;;;4917798;29;20474;-70
2023/06/22 11:37:07;;;;;;;0.70;0.20;;;30.40;1.00;;;;;;4917885;29;21001;-69
2023/06/22 11:39:35;;;;;;;1.07;0.70;;;30.40;1.00;;;;;;4918229;29;20483;-70
2023/06/22 11:42:14;;;;;;;0.70;0.30;;;30.50;1.00;;;;;;4920971;29;20847;-69
2023/06/22 11:44:44;;;;;;;0.70;0.20;;;30.50;1.00;;;;;;4937484;29;20899;-69
2023/06/22 11:47:12;;;;;;;1.47;0.97;;;30.60;1.00;;;;;;4925300;29;20835;-69
2023/06/22 11:49:40;;;;;;;0.70;0.17;;;30.60;1.00;;;;;;4917886;29;20482;-68
2023/06/22 11:52:09;;;;;;;1.53;0.57;;;30.70;1.00;;;;;;4919291;29;20512;-68
2023/06/22 11:54:37;;;;;;;1.17;0.77;;;30.60;1.00;;;;;;4932311;29;20484;-70
2023/06/22 11:57:05;;;;;;;2.47;2.33;;;30.70;1.00;;;;;;4924285;29;20484;-68
2023/06/22 11:59:33;;;;;;;1.07;0.97;;;30.70;1.00;;;;;;4917625;29;20448;-68
2023/06/22 12:02:01;;;;;;;4.60;1.40;;;30.70;1.00;;;;;;4916873;29;20448;-69
2023/06/22 12:04:29;;;;;;;0.90;0.73;;;30.90;1.00;;;;;;4917795;29;20465;-68
2023/06/22 12:06:58;;;;;;;0.70;0.20;;;30.90;1.00;;;;;;4917026;29;20484;-69
2023/06/22 12:09:27;;;;;;;2.00;1.80;;;30.90;1.00;;;;;;4919289;29;20515;-69
2023/06/22 12:11:55;;;;;;;0.80;0.50;;;31.00;1.00;;;;;;4917628;29;20486;-69
2023/06/22 12:14:23;;;;;;;0.90;0.50;;;31.00;1.00;;;;;;4904867;29;20488;-69
2023/06/22 12:16:51;;;;;;;0.80;0.53;;;31.20;1.00;;;;;;4902911;29;20575;-68
2023/06/22 12:19:19;;;;;;;0.70;0.20;;;31.20;1.00;;;;;;4909281;29;20800;-68
2023/06/22 12:21:47;;;;;;;1.27;1.17;;;31.30;1.00;;;;;;4921416;29;20541;-68
2023/06/22 12:24:14;;;;;;;0.70;0.10;;;31.30;1.00;;;;;;4926154;29;20495;-69
2023/06/22 12:26:44;;;;;;;0.70;0.20;;;31.50;1.00;;;;;;4905571;29;20445;-70
2023/06/22 12:29:11;;;;;;;1.43;0.60;;;31.50;1.00;;;;;;4900580;29;20560;-68
2023/06/22 12:31:39;;;;;;;0.70;0.17;;;31.50;1.00;;;;;;4903007;29;20495;-67
2023/06/22 12:34:07;;;;;;;0.70;0.10;;;31.70;1.00;;;;;;4900481;29;20468;-69
2023/06/22 12:36:36;;;;;;;0.70;0.20;;;31.70;1.00;;;;;;4918530;29;20513;-68
2023/06/22 12:39:04;;;;;;;1.20;1.10;;;31.80;1.00;;;;;;4917608;29;20449;-70
2023/06/22 12:41:31;;;;;;;0.70;0.20;;;31.90;1.00;;;;;;4916522;29;20456;-70
2023/06/22 12:44:01;;;;;;;1.27;0.20;;;31.90;1.00;;;;;;4910256;29;20450;-72
2023/06/22 12:46:30;;;;;;;1.27;0.80;;;32.00;1.00;;;;;;4916379;29;20468;-70
2023/06/22 12:48:58;;;;;;;0.70;0.20;;;32.00;1.00;;;;;;4911079;29;20470;-69
2023/06/22 12:51:26;;;;;;;0.70;0.17;;;32.00;1.00;;;;;;4916229;29;20469;-68
2023/06/22 12:53:53;;;;;;;0.70;0.20;;;31.80;1.00;;;;;;4917004;29;20825;-70
2023/06/22 12:56:21;;;;;;;0.70;0.20;;;31.90;1.00;;;;;;4916834;29;20460;-70
2023/06/22 12:58:49;;;;;;;1.13;0.77;;;31.70;1.00;;;;;;4916174;29;21050;-69
2023/06/22 13:01:19;;;;;;;1.83;0.70;;;31.80;1.00;;;;;;4915888;29;20476;-70
2023/06/22 13:03:46;;;;;;;0.70;0.30;;;31.80;1.00;;;;;;4913634;29;20940;-71
2023/06/22 13:06:14;;;;;;;0.70;0.20;;;31.70;1.00;;;;;;4916734;29;20932;-70
2023/06/22 13:08:43;;;;;;;0.87;0.70;;;31.70;1.00;;;;;;4905271;29;20917;-70
2023/06/22 13:11:31;;;;;;;0.70;0.20;;;31.80;1.00;;;;;;4909832;29;20970;-70
2023/06/22 13:13:58;;;;;;;0.90;0.20;;;31.70;1.00;;;;;;4907497;29;20445;-70
2023/06/22 13:16:28;;;;;;;0.70;0.10;;;31.70;1.00;;;;;;4900354;29;20449;-70
2023/06/22 13:18:55;;;;;;;0.70;0.20;;;31.60;1.00;;;;;;4897572;29;20450;-69
2023/06/22 13:21:24;;;;;;;0.70;0.17;;;31.50;1.00;;;;;;4911253;29;20452;-69
2023/06/22 13:23:51;;;;;;;1.67;1.00;;;31.50;1.00;;;;;;4917275;29;20490;-70
2023/06/22 13:26:19;;;;;;;0.70;0.20;;;31.40;1.00;;;;;;4916394;29;20536;-73
2023/06/22 13:28:47;;;;;;;0.70;0.20;;;31.50;1.00;;;;;;4913508;29;20449;-74
2023/06/22 13:31:15;;;;;;;1.00;0.90;;;31.50;1.00;;;;;;4901647;29;20449;-71
2023/06/22 13:33:47;;;;;;;0.70;0.20;;;31.60;1.00;;;;;;4905624;29;20653;-70
2023/06/22 13:36:15;;;;;;;0.70;0.20;;;31.70;1.00;;;;;;4909284;29;20546;-69
2023/06/22 13:38:43;;;;;;;0.80;0.40;;;31.70;1.00;;;;;;4916252;29;20514;-68
2023/06/22 13:41:11;;;;;;;0.70;0.20;;;31.80;1.00;;;;;;4909116;29;20596;-69
2023/06/22 13:43:39;;;;;;;0.80;0.33;;;31.70;1.00;;;;;;4913268;29;20448;-70
2023/06/22 13:46:07;;;;;;;0.70;0.20;;;31.80;1.00;;;;;;4913439;29;20469;-69
2023/06/22 13:48:35;;;;;;;0.70;0.20;;;31.80;1.00;;;;;;4916289;29;20445;-70
2023/06/22 13:51:04;;;;;;;0.70;0.30;;;31.80;1.00;;;;;;4913974;29;20471;-70
2023/06/22 13:53:32;;;;;;;0.70;0.20;;;31.70;1.00;;;;;;4908586;29;20476;-70
2023/06/22 13:55:59;;;;;;;0.70;0.10;;;31.70;1.00;;;;;;4906744;29;22071;-69
2023/06/22 13:58:27;;;;;;;0.70;0.20;;;31.70;1.00;;;;;;4907165;29;20480;-69
2023/06/22 14:00:55;;;;;;;0.70;0.10;;;31.90;1.00;;;;;;4915683;29;20467;-69
2023/06/22 14:03:24;;;;;;;0.80;0.30;;;32.20;1.00;;;;;;4915074;29;20472;-69
2023/06/22 14:05:54;;;;;;;1.67;1.57;;;32.30;1.00;;;;;;4909982;29;20500;-68
2023/06/22 14:08:24;;;;;;;1.00;0.60;;;32.40;1.00;;;;;;4897413;29;20516;-69
2023/06/22 14:11:08;;;;;;;0.70;0.20;;;32.60;1.00;;;;;;4914974;29;20447;-69
2023/06/22 14:13:36;;;;;;;0.70;0.20;;;32.80;1.00;;;;;;4935115;29;20846;-70
2023/06/22 14:16:05;;;;;;;1.30;1.07;;;32.90;1.00;;;;;;4934605;29;20471;-70
2023/06/22 14:18:33;;;;;;;1.33;1.23;;;33.00;1.00;;;;;;4925218;29;21021;-69
2023/06/22 14:21:01;;;;;;;0.70;0.30;;;32.90;1.00;;;;;;4916462;29;20544;-69
2023/06/22 14:23:31;;;;;;;3.43;2.87;;;33.10;1.00;;;;;;4915632;29;20452;-69
2023/06/22 14:25:58;;;;;;;0.93;0.83;;;33.20;1.00;;;;;;4916580;29;20582;-72
2023/06/22 14:28:26;;;;;;;0.70;0.30;;;33.20;1.00;;;;;;4917416;29;20497;-70
2023/06/22 14:30:54;;;;;;;0.70;0.20;;;33.20;1.00;;;;;;4916419;29;20459;-71
2023/06/22 14:33:22;;;;;;;1.23;0.83;;;33.20;1.00;;;;;;4917067;29;20449;-71
2023/06/22 14:35:50;;;;;;;0.70;0.30;;;33.20;1.00;;;;;;4915867;29;20514;-70
2023/06/22 14:38:18;;;;;;;0.90;0.60;;;33.00;1.00;;;;;;4915945;29;20587;-70
2023/06/22 14:40:47;;;;;;;0.70;0.20;;;33.00;1.00;;;;;;4915720;29;20451;-69
2023/06/22 14:43:20;;;;;;;0.80;0.47;;;33.00;1.00;;;;;;4915895;29;20904;-70
2023/06/22 14:45:48;;;;;;;0.70;0.20;;;33.00;1.00;;;;;;4915818;29;20567;-72
2023/06/22 14:48:18;;;;;;;1.17;0.73;;;32.90;1.00;;;;;;4916700;29;20553;-70
2023/06/22 14:50:46;;;;;;;0.80;0.30;;;32.80;1.00;;;;;;4916748;29;20508;-69
2023/06/22 14:53:15;;;;;;;0.87;0.33;;;32.60;1.00;;;;;;4916480;29;20453;-73
2023/06/22 14:55:42;;;;;;;0.70;0.20;;;32.50;1.00;;;;;;4901029;29;20556;-71
2023/06/22 14:58:12;;;;;;;0.70;0.20;;;32.30;1.00;;;;;;4894773;29;20567;-70
2023/06/22 15:00:40;;;;;;;0.70;0.20;;;32.20;1.00;;;;;;4894970;29;20796;-71
2023/06/22 15:03:11;;;;;;;0.70;0.20;;;32.20;1.00;;;;;;4903908;29;20450;-70
2023/06/22 15:05:39;;;;;;;0.70;0.30;;;32.20;1.00;;;;;;4903048;29;20497;-70
2023/06/22 15:08:07;;;;;;;0.70;0.20;;;32.10;1.00;;;;;;4913038;29;20814;-70
2023/06/22 15:10:38;;;;;;;0.70;0.20;;;31.90;1.00;;;;;;4918786;29;20943;-72
2023/06/22 15:13:06;;;;;;;0.70;0.20;;;31.90;1.00;;;;;;4933560;29;21034;-71
2023/06/22 15:15:35;;;;;;;1.73;1.50;;;31.80;1.00;;;;;;4933453;29;20566;-71
2023/06/22 15:18:03;;;;;;;1.90;1.63;;;31.80;1.00;;;;;;4917635;29;20994;-73
2023/06/22 15:20:32;;;;;;;0.90;0.40;;;31.80;1.00;;;;;;4914667;29;20476;-70
2023/06/22 15:23:00;;;;;;;0.70;0.10;;;31.50;1.00;;;;;;4914022;29;20464;-69
2023/06/22 15:25:28;;;;;;;0.70;0.20;;;31.50;1.00;;;;;;4917063;29;20499;-71
2023/06/22 15:27:56;;;;;;;0.70;0.20;;;31.40;1.00;;;;;;4914668;29;20457;-68
2023/06/22 15:30:24;;;;;;;0.70;0.20;;;31.30;1.00;;;;;;4919290;29;20447;-69
2023/06/22 15:32:53;;;;;;;0.70;0.10;;;31.30;1.00;;;;;;4919006;29;20440;-71
2023/06/22 15:35:21;;;;;;;2.73;1.97;;;31.30;1.00;;;;;;4920009;29;20476;-71
2023/06/22 15:37:51;;;;;;;1.00;0.90;;;31.10;1.00;;;;;;4915112;29;20445;-70
2023/06/22 15:40:19;;;;;;;1.40;1.00;;;31.00;1.00;;;;;;4908005;29;20452;-71
2023/06/22 15:42:47;;;;;;;2.27;2.17;;;30.90;1.00;;;;;;4919297;29;20455;-70
2023/06/22 15:45:18;;;;;;;0.70;0.20;;;30.90;1.00;;;;;;4920291;29;21005;-71
2023/06/22 15:47:46;;;;;;;0.80;0.30;;;30.80;1.00;;;;;;4913635;29;21078;-71
2023/06/22 15:50:15;;;;;;;9.93;0.77;;;30.60;1.00;;;;;;4914732;29;20863;-72
2023/06/22 15:52:47;;;;;;;0.83;0.40;;;30.40;1.00;;;;;;4911484;29;20470;-68
2023/06/22 15:55:15;;;;;;;0.70;0.10;;;29.90;1.00;;;;;;4909325;29;20506;-68
2023/06/22 15:57:46;;;;;;;0.70;0.20;;;29.60;1.00;;;;;;4917820;29;20543;-72
2023/06/22 16:00:16;;;;;;;0.93;0.40;;;29.40;1.00;;;;;;4909422;29;20577;-69
2023/06/22 16:02:45;;;;;;;0.70;0.20;;;29.20;1.00;;;;;;4918772;29;20484;-67
2023/06/22 16:05:15;;;;;;;0.70;0.13;;;29.20;1.00;;;;;;4919181;29;20635;-67
2023/06/22 16:07:43;;;;;;;1.60;1.50;;;29.20;1.00;;;;;;4917481;29;20446;-69
2023/06/22 16:10:13;;;;;;;0.70;0.20;;;29.10;1.00;;;;;;4918135;29;21015;-65
2023/06/22 16:12:43;;;;;;;0.70;0.20;;;29.00;1.00;;;;;;4936340;29;20990;-66
2023/06/22 16:15:11;;;;;;;0.70;0.20;;;29.00;1.00;;;;;;4935998;29;20472;-65
2023/06/22 16:17:39;;;;;;;0.70;0.17;;;29.00;1.00;;;;;;4936615;29;20483;-65
2023/06/22 16:20:10;;;;;;;0.70;0.30;;;28.80;1.00;;;;;;4936124;29;20531;-66
2023/06/22 16:22:39;;;;;;;0.70;0.20;;;28.30;1.00;;;;;;4937408;29;20904;-78
2023/06/22 16:25:07;;;;;;;0.70;0.20;;;27.80;1.00;;;;;;4937054;29;20499;-77
2023/06/22 16:27:36;;;;;;;0.90;0.60;;;27.30;1.00;;;;;;4937334;29;20514;-77
2023/06/22 16:30:04;;;;;;;0.70;0.40;;;;;;;;;;4933015;29;20469;-76
2023/06/22 16:32:32;;;;;;;3.90;2.37;;;26.30;1.00;;;;;;4918440;29;20445;-77
2023/06/22 16:35:01;;;;;;;2.50;0.77;;;;;;;;;;4907832;23;1156485;-76
2023/06/22 16:37:28;;;;;;;3.60;1.20;;;25.20;7.80;;;;;;4945614;29;20208;-74
2023/06/22 16:39:58;;;;;;;0.70;0.20;;;24.90;30.40;;;;;;4941588;29;20494;-73
2023/06/22 16:42:26;;;;;;;1.20;0.57;;;24.50;40.30;;;;;;4939740;29;20717;-76
2023/06/22 16:44:53;;;;;;;5.70;1.17;;;24.20;7.40;;;;;;4940944;29;20562;-76
2023/06/22 16:47:21;;;;;;;1.00;0.43;;;24.20;17.90;;;;;;4949736;29;20462;-73
2023/06/22 16:49:50;;;;;;;0.80;0.30;;;24.10;15.30;;;;;;4957907;29;20520;-73
2023/06/22 16:52:18;;;;;;;1.87;1.13;;;24.10;23.80;;;;;;4949825;29;20522;-75
2023/06/22 16:54:47;;;;;;;0.70;0.10;;;24.20;19.80;;;;;;4937869;29;20486;-76
2023/06/22 16:57:28;;;;;;;1.20;1.07;;;24.20;28.20;;;;;;4940390;29;20619;-76
2023/06/22 16:59:56;;;;;;;0.70;0.20;;;24.30;35.60;;;;;;4931594;29;20543;-75
2023/06/22 17:02:25;;;;;;;0.97;0.30;;;24.40;38.40;;;;;;4927214;29;20487;-75